createdAt,value
2023-04-16T00:00:36.977Z,227.15
2023-04-16T00:01:37.024Z,228.47
2023-04-16T00:02:37.205Z,229.74
2023-04-16T00:03:37.270Z,231.10
2023-04-16T00:04:37.204Z,226.89
2023-04-16T00:05:37.209Z,227.91
2023-04-16T00:06:37.301Z,227.31
2023-04-16T00:07:37.353Z,227.27
2023-04-16T00:08:37.388Z,223.38
2023-04-16T00:09:37.455Z,219.87
2023-04-16T00:10:37.506Z,226.09
2023-04-16T00:11:37.540Z,226.73
2023-04-16T00:12:37.636Z,230.93
2023-04-16T00:13:37.653Z,224.04
2023-04-16T00:14:37.691Z,224.06
2023-04-16T00:15:37.761Z,219.40
2023-04-16T00:16:37.874Z,221.11
2023-04-16T00:17:37.894Z,224.84
2023-04-16T00:18:37.932Z,219.18
2023-04-16T00:19:37.995Z,222.77
2023-04-16T00:20:38.034Z,226.00
2023-04-16T00:21:38.108Z,226.72
2023-04-16T00:22:38.161Z,228.86
2023-04-16T00:23:38.230Z,225.51
2023-04-16T00:24:38.333Z,226.20
2023-04-16T00:25:38.342Z,223.60
2023-04-16T00:26:38.432Z,225.46
2023-04-16T00:27:38.487Z,224.27
2023-04-16T00:28:38.549Z,223.80
2023-04-16T00:29:38.591Z,226.19
2023-04-16T00:30:38.699Z,225.08
2023-04-16T00:31:38.703Z,223.44
2023-04-16T00:32:38.801Z,224.19
2023-04-16T00:33:38.802Z,226.86
2023-04-16T00:34:38.842Z,222.05
2023-04-16T00:35:38.905Z,223.49
2023-04-16T00:36:38.934Z,216.99
2023-04-16T00:37:39.032Z,219.92
2023-04-16T00:38:39.067Z,214.43
2023-04-16T00:39:39.145Z,217.85
2023-04-16T00:40:39.205Z,221.06
2023-04-16T00:41:39.244Z,218.74
2023-04-16T00:42:39.286Z,219.72
2023-04-16T00:43:39.357Z,219.70
2023-04-16T00:44:39.405Z,224.03
2023-04-16T00:45:39.476Z,221.84
2023-04-16T00:46:39.574Z,212.30
2023-04-16T00:47:39.612Z,212.90
2023-04-16T00:48:39.625Z,212.17
2023-04-16T00:49:39.716Z,212.00
2023-04-16T00:50:39.754Z,215.44
2023-04-16T00:51:39.802Z,213.12
2023-04-16T00:52:39.832Z,210.12
2023-04-16T00:53:39.889Z,213.59
2023-04-16T00:54:39.967Z,215.66
2023-04-16T00:55:40.015Z,213.24
2023-04-16T00:56:40.048Z,210.53
2023-04-16T00:57:40.131Z,210.79
2023-04-16T00:58:40.183Z,209.02
2023-04-16T00:59:40.253Z,201.69
2023-04-16T01:00:40.284Z,201.60
2023-04-16T01:01:40.417Z,203.95
2023-04-16T01:02:40.533Z,205.73
2023-04-16T01:03:40.570Z,209.49
2023-04-16T01:04:40.517Z,201.58
2023-04-16T01:05:40.544Z,207.53
2023-04-16T01:06:40.600Z,203.31
2023-04-16T01:07:40.653Z,201.67
2023-04-16T01:08:40.700Z,201.27
2023-04-16T01:09:40.766Z,200.44
2023-04-16T01:10:40.816Z,200.68
2023-04-16T01:11:40.862Z,195.93
2023-04-16T01:12:40.931Z,201.25
2023-04-16T01:13:40.970Z,202.45
2023-04-16T01:14:41.060Z,201.17
2023-04-16T01:15:41.121Z,193.20
2023-04-16T01:16:41.133Z,194.24
2023-04-16T01:17:41.267Z,196.73
2023-04-16T01:18:41.269Z,200.81
2023-04-16T01:19:41.298Z,201.36
2023-04-16T01:20:41.340Z,201.96
2023-04-16T01:21:41.396Z,200.25
2023-04-16T01:22:41.466Z,199.22
2023-04-16T01:23:41.487Z,196.56
2023-04-16T01:24:41.580Z,197.52
2023-04-16T01:25:41.608Z,195.19
2023-04-16T01:26:41.632Z,189.53
2023-04-16T01:27:41.741Z,188.38
2023-04-16T01:28:41.795Z,195.39
2023-04-16T01:29:41.846Z,197.31
2023-04-16T01:30:41.900Z,199.89
2023-04-16T01:31:41.957Z,205.99
2023-04-16T01:32:42.040Z,202.66
2023-04-16T01:33:42.024Z,202.27
2023-04-16T01:34:42.153Z,201.14
2023-04-16T01:35:42.142Z,200.70
2023-04-16T01:36:42.166Z,200.63
2023-04-16T01:37:42.253Z,200.90
2023-04-16T01:38:42.315Z,200.88
2023-04-16T01:39:42.367Z,202.32
2023-04-16T01:40:42.406Z,203.52
2023-04-16T01:41:42.426Z,202.91
2023-04-16T01:42:42.487Z,199.38
2023-04-16T01:43:42.627Z,197.06
2023-04-16T01:44:42.621Z,204.69
2023-04-16T01:45:42.753Z,206.98
2023-04-16T01:46:42.740Z,206.17
2023-04-16T01:47:42.807Z,207.07
2023-04-16T01:48:42.800Z,203.85
2023-04-16T01:49:42.858Z,204.89
2023-04-16T01:50:42.955Z,207.14
2023-04-16T01:51:43.008Z,205.58
2023-04-16T01:52:43.051Z,207.01
2023-04-16T01:53:43.064Z,209.87
2023-04-16T01:54:43.131Z,206.04
2023-04-16T01:55:43.222Z,204.55
2023-04-16T01:56:43.270Z,205.89
2023-04-16T01:57:43.314Z,204.73
2023-04-16T01:58:43.390Z,203.74
2023-04-16T01:59:43.425Z,201.75
2023-04-16T02:00:43.528Z,200.26
2023-04-16T02:01:43.585Z,201.58
2023-04-16T02:02:43.752Z,202.12
2023-04-16T02:03:43.784Z,198.69
2023-04-16T02:04:43.714Z,201.08
2023-04-16T02:05:43.733Z,203.54
2023-04-16T02:06:43.765Z,207.06
2023-04-16T02:07:43.832Z,203.04
2023-04-16T02:08:43.865Z,200.54
2023-04-16T02:09:43.903Z,200.28
2023-04-16T02:10:43.958Z,201.28
2023-04-16T02:11:44.030Z,197.14
2023-04-16T02:12:44.108Z,197.49
2023-04-16T02:13:44.144Z,198.20
2023-04-16T02:14:44.192Z,197.57
2023-04-16T02:15:44.250Z,203.89
2023-04-16T02:16:44.387Z,196.08
2023-04-16T02:17:44.453Z,204.02
2023-04-16T02:18:44.421Z,204.43
2023-04-16T02:19:44.478Z,203.81
2023-04-16T02:20:44.547Z,204.04
2023-04-16T02:21:44.623Z,202.53
2023-04-16T02:22:44.621Z,198.16
2023-04-16T02:23:44.718Z,198.71
2023-04-16T02:24:44.756Z,199.71
2023-04-16T02:25:44.840Z,196.45
2023-04-16T02:26:44.845Z,199.79
2023-04-16T02:27:44.914Z,200.52
2023-04-16T02:28:44.993Z,195.72
2023-04-16T02:29:45.050Z,197.37
2023-04-16T02:30:45.085Z,195.68
2023-04-16T02:31:45.144Z,198.65
2023-04-16T02:32:45.260Z,197.76
2023-04-16T02:33:45.285Z,196.83
2023-04-16T02:34:45.336Z,195.68
2023-04-16T02:35:45.330Z,198.79
2023-04-16T02:36:45.355Z,199.40
2023-04-16T02:37:45.375Z,201.70
2023-04-16T02:38:45.433Z,207.03
2023-04-16T02:39:45.757Z,205.04
2023-04-16T02:40:45.452Z,202.20
2023-04-16T02:41:45.471Z,201.92
2023-04-16T02:42:45.563Z,204.21
2023-04-16T02:43:45.618Z,204.86
2023-04-16T02:44:45.672Z,205.66
2023-04-16T02:45:45.745Z,202.98
2023-04-16T02:46:45.790Z,205.02
2023-04-16T02:47:45.879Z,199.38
2023-04-16T02:48:45.863Z,201.67
2023-04-16T02:49:46.039Z,200.98
2023-04-16T02:50:46.019Z,198.64
2023-04-16T02:51:46.011Z,204.24
2023-04-16T02:52:46.098Z,200.19
2023-04-16T02:53:46.212Z,193.66
2023-04-16T02:54:46.246Z,198.59
2023-04-16T02:55:46.296Z,199.89
2023-04-16T02:56:46.345Z,199.82
2023-04-16T02:57:46.395Z,197.66
2023-04-16T02:58:46.444Z,198.82
2023-04-16T02:59:46.532Z,196.13
2023-04-16T03:00:46.561Z,198.25
2023-04-16T03:01:46.718Z,194.59
2023-04-16T03:02:46.798Z,202.16
2023-04-16T03:03:46.747Z,206.76
2023-04-16T03:04:46.803Z,197.71
2023-04-16T03:05:46.848Z,198.08
2023-04-16T03:06:46.890Z,202.76
2023-04-16T03:07:46.937Z,201.48
2023-04-16T03:08:47.021Z,205.07
2023-04-16T03:09:47.065Z,205.95
2023-04-16T03:10:47.101Z,206.67
2023-04-16T03:11:47.194Z,206.88
2023-04-16T03:12:47.229Z,205.50
2023-04-16T03:13:47.248Z,209.70
2023-04-16T03:14:47.395Z,206.87
2023-04-16T03:15:47.396Z,206.25
2023-04-16T03:16:47.443Z,208.84
2023-04-16T03:17:47.533Z,208.37
2023-04-16T03:18:47.547Z,210.33
2023-04-16T03:19:47.610Z,215.97
2023-04-16T03:20:47.660Z,212.12
2023-04-16T03:21:47.681Z,216.12
2023-04-16T03:22:47.771Z,218.76
2023-04-16T03:23:47.817Z,219.41
2023-04-16T03:24:47.874Z,215.23
2023-04-16T03:25:47.956Z,222.39
2023-04-16T03:26:48.000Z,217.62
2023-04-16T03:27:48.029Z,214.41
2023-04-16T03:28:48.098Z,212.03
2023-04-16T03:29:48.175Z,214.61
2023-04-16T03:30:48.243Z,213.86
2023-04-16T03:31:48.277Z,214.03
2023-04-16T03:32:48.319Z,217.40
2023-04-16T03:33:48.360Z,218.93
2023-04-16T03:34:48.435Z,216.22
2023-04-16T03:35:48.464Z,214.16
2023-04-16T03:36:48.541Z,213.05
2023-04-16T03:37:48.589Z,213.23
2023-04-16T03:38:48.646Z,211.07
2023-04-16T03:39:48.717Z,207.33
2023-04-16T03:40:48.741Z,207.24
2023-04-16T03:41:48.826Z,206.58
2023-04-16T03:42:48.860Z,213.86
2023-04-16T03:43:48.942Z,215.45
2023-04-16T03:44:48.963Z,211.54
2023-04-16T03:45:49.059Z,212.01
2023-04-16T03:46:49.179Z,212.81
2023-04-16T03:47:49.213Z,218.37
2023-04-16T03:48:49.193Z,212.36
2023-04-16T03:49:49.258Z,212.12
2023-04-16T03:50:49.338Z,214.87
2023-04-16T03:51:49.376Z,214.61
2023-04-16T03:52:49.498Z,215.54
2023-04-16T03:53:49.524Z,215.93
2023-04-16T03:54:49.588Z,213.91
2023-04-16T03:55:49.595Z,212.92
2023-04-16T03:56:49.683Z,215.51
2023-04-16T03:57:49.731Z,219.48
2023-04-16T03:58:49.794Z,216.82
2023-04-16T03:59:49.865Z,223.05
2023-04-16T04:00:49.990Z,219.16
2023-04-16T04:01:50.035Z,219.64
2023-04-16T04:02:50.121Z,220.80
2023-04-16T04:03:50.290Z,220.32
2023-04-16T04:04:50.189Z,221.72
2023-04-16T04:05:50.218Z,224.02
2023-04-16T04:06:50.263Z,222.55
2023-04-16T04:07:50.330Z,217.46
2023-04-16T04:08:50.398Z,221.18
2023-04-16T04:09:50.474Z,225.52
2023-04-16T04:10:50.531Z,223.43
2023-04-16T04:11:50.558Z,221.51
2023-04-16T04:12:50.628Z,218.93
2023-04-16T04:13:50.693Z,221.29
2023-04-16T04:14:50.795Z,223.19
2023-04-16T04:15:50.810Z,227.16
2023-04-16T04:16:50.855Z,226.22
2023-04-16T04:17:51.064Z,222.94
2023-04-16T04:18:50.991Z,222.03
2023-04-16T04:20:01.265Z,224.82
2023-04-16T04:20:52.025Z,225.08
2023-04-16T04:21:51.813Z,225.15
2023-04-16T04:22:51.000Z,226.56
2023-04-16T04:23:51.015Z,225.94
2023-04-16T04:24:50.996Z,222.77
2023-04-16T04:25:51.016Z,231.07
2023-04-16T04:26:50.988Z,235.21
2023-04-16T04:27:50.981Z,226.32
2023-04-16T04:28:50.997Z,225.50
2023-04-16T04:29:50.996Z,227.07
2023-04-16T04:30:51.044Z,225.90
2023-04-16T04:31:51.173Z,227.57
2023-04-16T04:32:51.185Z,223.40
2023-04-16T04:33:51.219Z,223.24
2023-04-16T04:34:51.277Z,223.22
2023-04-16T04:35:51.344Z,227.41
2023-04-16T04:36:51.401Z,222.82
2023-04-16T04:37:51.536Z,225.75
2023-04-16T04:38:51.517Z,225.94
2023-04-16T04:39:51.588Z,223.66
2023-04-16T04:40:51.625Z,226.24
2023-04-16T04:41:51.646Z,226.24
2023-04-16T04:42:51.740Z,229.09
2023-04-16T04:43:51.807Z,226.38
2023-04-16T04:44:51.859Z,228.45
2023-04-16T04:45:51.916Z,226.22
2023-04-16T04:46:51.956Z,226.93
2023-04-16T04:47:52.064Z,225.35
2023-04-16T04:48:52.074Z,227.18
2023-04-16T04:49:52.162Z,226.48
2023-04-16T04:50:52.191Z,229.13
2023-04-16T04:51:52.278Z,227.32
2023-04-16T04:52:52.329Z,230.43
2023-04-16T04:53:52.371Z,230.47
2023-04-16T04:54:52.438Z,229.56
2023-04-16T04:55:54.192Z,227.91
2023-04-16T04:56:52.521Z,227.93
2023-04-16T04:57:52.449Z,225.52
2023-04-16T04:58:52.475Z,227.99
2023-04-16T04:59:52.467Z,226.12
2023-04-16T05:00:52.480Z,227.62
2023-04-16T05:01:52.505Z,226.18
2023-04-16T05:02:52.573Z,222.33
2023-04-16T05:03:52.467Z,220.95
2023-04-16T05:04:52.480Z,225.72
2023-04-16T05:05:52.476Z,226.27
2023-04-16T05:06:52.513Z,227.74
2023-04-16T05:07:52.595Z,224.02
2023-04-16T05:08:52.656Z,224.35
2023-04-16T05:09:52.701Z,226.58
2023-04-16T05:10:52.725Z,227.65
2023-04-16T05:11:52.856Z,224.63
2023-04-16T05:12:52.862Z,224.03
2023-04-16T05:13:52.929Z,228.26
2023-04-16T05:14:52.977Z,225.24
2023-04-16T05:15:53.012Z,222.41
2023-04-16T05:16:53.134Z,221.02
2023-04-16T05:17:53.145Z,225.86
2023-04-16T05:18:53.230Z,222.24
2023-04-16T05:19:53.277Z,223.66
2023-04-16T05:20:53.324Z,219.72
2023-04-16T05:21:53.389Z,216.83
2023-04-16T05:22:53.442Z,219.19
2023-04-16T05:23:53.507Z,215.95
2023-04-16T05:24:53.539Z,212.72
2023-04-16T05:25:53.609Z,214.16
2023-04-16T05:26:53.681Z,215.35
2023-04-16T05:27:53.748Z,217.32
2023-04-16T05:28:53.808Z,215.69
2023-04-16T05:29:53.882Z,216.97
2023-04-16T05:30:54.003Z,215.09
2023-04-16T05:31:53.970Z,218.59
2023-04-16T05:32:54.041Z,222.98
2023-04-16T05:33:54.080Z,221.81
2023-04-16T05:34:54.149Z,222.90
2023-04-16T05:35:54.233Z,221.89
2023-04-16T05:36:54.239Z,219.07
2023-04-16T05:37:54.342Z,221.45
2023-04-16T05:38:54.398Z,216.55
2023-04-16T05:39:54.438Z,223.26
2023-04-16T05:40:54.495Z,224.61
2023-04-16T05:41:54.560Z,222.97
2023-04-16T05:42:54.594Z,219.69
2023-04-16T05:43:54.659Z,219.37
2023-04-16T05:44:54.720Z,226.01
2023-04-16T05:45:54.828Z,225.48
2023-04-16T05:46:54.864Z,225.49
2023-04-16T05:47:55.004Z,219.78
2023-04-16T05:48:54.971Z,224.17
2023-04-16T05:49:55.040Z,221.32
2023-04-16T05:50:55.116Z,225.10
2023-04-16T05:51:55.160Z,228.32
2023-04-16T05:52:55.182Z,229.03
2023-04-16T05:53:55.277Z,229.20
2023-04-16T05:54:55.350Z,227.59
2023-04-16T05:55:55.397Z,228.09
2023-04-16T05:56:55.462Z,226.71
2023-04-16T05:57:55.514Z,229.51
2023-04-16T05:58:55.592Z,233.53
2023-04-16T05:59:55.712Z,232.54
2023-04-16T06:00:55.693Z,231.26
2023-04-16T06:01:55.823Z,230.82
2023-04-16T06:02:55.899Z,234.65
2023-04-16T06:03:55.939Z,237.26
2023-04-16T06:04:55.951Z,236.24
2023-04-16T06:05:56.126Z,231.18
2023-04-16T06:06:56.089Z,234.36
2023-04-16T06:07:56.113Z,231.91
2023-04-16T06:08:56.199Z,232.30
2023-04-16T06:09:56.240Z,236.35
2023-04-16T06:10:56.284Z,236.86
2023-04-16T06:11:56.346Z,233.23
2023-04-16T06:12:56.394Z,236.69
2023-04-16T06:13:56.451Z,234.14
2023-04-16T06:14:56.512Z,233.38
2023-04-16T06:15:56.620Z,234.42
2023-04-16T06:16:56.671Z,233.35
2023-04-16T06:17:58.069Z,231.34
2023-04-16T06:18:56.713Z,235.94
2023-04-16T06:19:56.708Z,232.97
2023-04-16T06:20:56.726Z,231.10
2023-04-16T06:21:56.716Z,232.08
2023-04-16T06:22:56.661Z,236.62
2023-04-16T06:23:56.672Z,237.17
2023-04-16T06:24:56.701Z,239.89
2023-04-16T06:25:56.654Z,241.15
2023-04-16T06:26:56.668Z,241.01
2023-04-16T06:27:56.685Z,240.59
2023-04-16T06:28:56.670Z,241.87
2023-04-16T06:29:56.661Z,241.35
2023-04-16T06:30:56.623Z,247.72
2023-04-16T06:31:56.680Z,247.84
2023-04-16T06:32:56.636Z,246.80
2023-04-16T06:33:56.652Z,246.39
2023-04-16T06:34:56.639Z,246.10
2023-04-16T06:35:56.609Z,242.08
2023-04-16T06:36:56.618Z,248.58
2023-04-16T06:37:56.585Z,248.74
2023-04-16T06:38:57.366Z,241.24
2023-04-16T06:39:56.871Z,237.58
2023-04-16T06:40:56.572Z,246.45
2023-04-16T06:41:56.558Z,240.56
2023-04-16T06:42:56.537Z,240.93
2023-04-16T06:43:56.548Z,235.54
2023-04-16T06:44:56.537Z,239.32
2023-04-16T06:45:56.539Z,234.24
2023-04-16T06:46:56.567Z,237.73
2023-04-16T06:47:56.562Z,245.55
2023-04-16T06:48:56.549Z,239.09
2023-04-16T06:49:56.538Z,234.95
2023-04-16T06:50:56.498Z,249.77
2023-04-16T06:51:56.529Z,243.65
2023-04-16T06:52:56.485Z,240.01
2023-04-16T06:53:56.501Z,235.90
2023-04-16T06:54:56.843Z,231.54
2023-04-16T06:55:56.473Z,244.22
2023-04-16T06:56:56.531Z,245.98
2023-04-16T06:57:56.595Z,246.48
2023-04-16T06:58:56.661Z,250.00
2023-04-16T06:59:56.700Z,245.75
2023-04-16T07:00:56.769Z,244.02
2023-04-16T07:01:56.925Z,240.70
2023-04-16T07:02:58.645Z,241.62
2023-04-16T07:03:57.119Z,249.80
2023-04-16T07:04:56.997Z,244.86
2023-04-16T07:05:57.081Z,242.39
2023-04-16T07:06:57.193Z,248.01
2023-04-16T07:07:57.193Z,245.60
2023-04-16T07:08:57.212Z,245.92
2023-04-16T07:09:57.285Z,240.90
2023-04-16T07:10:57.324Z,244.61
2023-04-16T07:11:57.433Z,243.56
2023-04-16T07:12:57.449Z,241.23
2023-04-16T07:13:57.524Z,239.98
2023-04-16T07:14:57.622Z,244.56
2023-04-16T07:15:57.669Z,241.00
2023-04-16T07:16:57.933Z,234.31
2023-04-16T07:17:57.780Z,237.66
2023-04-16T07:18:57.847Z,245.67
2023-04-16T07:19:57.900Z,250.00
2023-04-16T07:20:57.973Z,237.01
2023-04-16T07:21:58.040Z,245.62
2023-04-16T07:22:58.064Z,242.18
2023-04-16T07:23:58.163Z,239.37
2023-04-16T07:24:58.192Z,233.22
2023-04-16T07:25:58.257Z,233.19
2023-04-16T07:26:58.329Z,232.65
2023-04-16T07:27:58.409Z,234.18
2023-04-16T07:28:58.465Z,233.14
2023-04-16T07:29:58.523Z,232.77
2023-04-16T07:30:58.580Z,236.66
2023-04-16T07:31:58.648Z,242.36
2023-04-16T07:32:58.720Z,249.07
2023-04-16T07:33:58.734Z,247.53
2023-04-16T07:34:58.783Z,245.96
2023-04-16T07:35:58.819Z,247.04
2023-04-16T07:36:58.925Z,242.56
2023-04-16T07:37:58.980Z,242.70
2023-04-16T07:38:59.016Z,244.78
2023-04-16T07:39:59.073Z,238.51
2023-04-16T07:40:59.166Z,237.34
2023-04-16T07:41:59.219Z,237.19
2023-04-16T07:42:59.280Z,235.55
2023-04-16T07:43:59.349Z,231.67
2023-04-16T07:44:59.385Z,231.75
2023-04-16T07:45:59.493Z,221.38
2023-04-16T07:46:59.614Z,218.70
2023-04-16T07:47:59.605Z,225.91
2023-04-16T07:48:59.657Z,220.95
2023-04-16T07:49:59.694Z,219.93
2023-04-16T07:50:59.792Z,221.54
2023-04-16T07:51:59.824Z,220.68
2023-04-16T07:52:59.877Z,212.64
2023-04-16T07:53:59.937Z,211.53
2023-04-16T07:54:59.997Z,217.26
2023-04-16T07:56:00.107Z,219.26
2023-04-16T07:57:00.144Z,216.65
2023-04-16T07:58:00.250Z,218.84
2023-04-16T07:59:05.420Z,211.21
2023-04-16T08:00:01.258Z,211.24
2023-04-16T08:01:00.270Z,210.34
2023-04-16T08:02:00.367Z,213.91
2023-04-16T08:03:00.451Z,212.33
2023-04-16T08:04:00.412Z,214.03
2023-04-16T08:05:00.291Z,213.86
2023-04-16T08:06:00.208Z,212.63
2023-04-16T08:07:00.234Z,217.14
2023-04-16T08:08:00.206Z,217.75
2023-04-16T08:09:00.261Z,210.97
2023-04-16T08:10:00.327Z,206.27
2023-04-16T08:11:00.431Z,209.78
2023-04-16T08:12:00.423Z,206.44
2023-04-16T08:13:00.531Z,211.47
2023-04-16T08:14:00.567Z,213.72
2023-04-16T08:15:00.620Z,211.51
2023-04-16T08:16:00.697Z,206.05
2023-04-16T08:17:00.767Z,210.29
2023-04-16T08:18:00.864Z,211.25
2023-04-16T08:19:00.880Z,211.37
2023-04-16T08:20:00.942Z,205.23
2023-04-16T08:21:00.987Z,197.35
2023-04-16T08:22:01.057Z,197.20
2023-04-16T08:23:01.124Z,197.82
2023-04-16T08:24:01.193Z,196.43
2023-04-16T08:25:01.237Z,202.63
2023-04-16T08:26:01.288Z,197.82
2023-04-16T08:27:11.470Z,188.70
2023-04-16T08:28:02.383Z,188.87
2023-04-16T08:29:01.358Z,189.72
2023-04-16T08:30:01.352Z,191.41
2023-04-16T08:31:01.380Z,185.78
2023-04-16T08:32:01.345Z,196.14
2023-04-16T08:33:01.410Z,196.01
2023-04-16T08:34:01.312Z,196.22
2023-04-16T08:35:01.333Z,198.22
2023-04-16T08:36:01.339Z,193.15
2023-04-16T08:37:01.341Z,196.17
2023-04-16T08:38:02.555Z,199.28
2023-04-16T08:39:01.493Z,197.44
2023-04-16T08:40:01.539Z,199.07
2023-04-16T08:41:01.579Z,190.04
2023-04-16T08:42:01.689Z,194.53
2023-04-16T08:43:01.711Z,196.14
2023-04-16T08:44:01.783Z,194.88
2023-04-16T08:45:01.874Z,199.14
2023-04-16T08:46:01.941Z,199.08
2023-04-16T08:47:02.145Z,188.42
2023-04-16T08:48:02.049Z,190.90
2023-04-16T08:49:02.064Z,198.29
2023-04-16T08:50:02.097Z,196.12
2023-04-16T08:51:02.124Z,198.80
2023-04-16T08:52:02.182Z,200.52
2023-04-16T08:53:02.229Z,199.73
2023-04-16T08:54:02.237Z,193.98
2023-04-16T08:55:02.258Z,188.36
2023-04-16T08:56:02.264Z,190.40
2023-04-16T08:57:02.394Z,195.56
2023-04-16T08:58:02.412Z,195.59
2023-04-16T08:59:02.455Z,199.45
2023-04-16T09:00:02.402Z,200.60
2023-04-16T09:01:02.415Z,194.59
2023-04-16T09:02:02.540Z,191.10
2023-04-16T09:03:02.702Z,191.69
2023-04-16T09:04:02.794Z,195.34
2023-04-16T09:05:02.577Z,195.76
2023-04-16T09:06:02.608Z,203.80
2023-04-16T09:07:02.642Z,202.36
2023-04-16T09:08:02.696Z,197.70
2023-04-16T09:09:02.797Z,204.18
2023-04-16T09:10:02.828Z,205.31
2023-04-16T09:11:02.879Z,209.56
2023-04-16T09:12:02.943Z,208.62
2023-04-16T09:13:03.049Z,203.56
2023-04-16T09:14:03.065Z,205.02
2023-04-16T09:15:03.164Z,202.58
2023-04-16T09:16:03.213Z,209.84
2023-04-16T09:17:03.220Z,205.06
2023-04-16T09:18:03.378Z,218.81
2023-04-16T09:19:03.394Z,211.01
2023-04-16T09:20:03.456Z,206.56
2023-04-16T09:21:03.471Z,204.73
2023-04-16T09:22:03.518Z,212.10
2023-04-16T09:23:03.598Z,223.99
2023-04-16T09:24:03.624Z,208.10
2023-04-16T09:25:03.735Z,214.98
2023-04-16T09:26:03.753Z,213.19
2023-04-16T09:27:03.805Z,207.97
2023-04-16T09:28:03.860Z,215.23
2023-04-16T09:29:03.898Z,212.52
2023-04-16T09:30:03.978Z,211.35
2023-04-16T09:31:04.052Z,201.34
2023-04-16T09:32:04.126Z,201.54
2023-04-16T09:33:04.130Z,210.31
2023-04-16T09:34:04.202Z,202.26
2023-04-16T09:35:04.264Z,202.72
2023-04-16T09:36:04.300Z,196.44
2023-04-16T09:37:04.362Z,197.49
2023-04-16T09:38:04.393Z,199.39
2023-04-16T09:39:04.500Z,197.51
2023-04-16T09:40:04.532Z,201.04
2023-04-16T09:41:04.600Z,197.19
2023-04-16T09:42:04.664Z,199.60
2023-04-16T09:43:04.710Z,201.71
2023-04-16T09:44:04.792Z,207.28
2023-04-16T09:45:05.923Z,205.43
2023-04-16T09:46:08.217Z,212.80
2023-04-16T09:47:04.865Z,206.13
2023-04-16T09:48:04.985Z,209.91
2023-04-16T09:49:04.883Z,206.84
2023-04-16T09:50:04.887Z,201.96
2023-04-16T09:51:04.863Z,205.42
2023-04-16T09:52:04.873Z,203.11
2023-04-16T09:53:04.875Z,204.99
2023-04-16T09:54:04.813Z,198.96
2023-04-16T09:55:04.827Z,202.37
2023-04-16T09:56:04.820Z,206.65
2023-04-16T09:57:04.808Z,205.25
2023-04-16T09:58:04.784Z,210.77
2023-04-16T09:59:04.811Z,207.64
2023-04-16T10:00:04.789Z,206.82
2023-04-16T10:01:04.814Z,209.35
2023-04-16T10:02:14.759Z,210.54
2023-04-16T10:03:05.853Z,210.73
2023-04-16T10:04:04.840Z,210.55
2023-04-16T10:05:04.773Z,204.67
2023-04-16T10:06:04.750Z,208.60
2023-04-16T10:07:04.739Z,204.18
2023-04-16T10:08:04.748Z,205.91
2023-04-16T10:09:04.713Z,210.33
2023-04-16T10:10:04.763Z,209.19
2023-04-16T10:11:04.713Z,216.38
2023-04-16T10:12:04.705Z,212.99
2023-04-16T10:13:04.725Z,215.59
2023-04-16T10:14:04.766Z,217.36
2023-04-16T10:15:04.818Z,218.59
2023-04-16T10:16:04.859Z,219.21
2023-04-16T10:17:04.920Z,212.49
2023-04-16T10:18:05.045Z,216.17
2023-04-16T10:19:04.998Z,217.35
2023-04-16T10:20:05.044Z,218.41
2023-04-16T10:21:05.120Z,221.67
2023-04-16T10:22:05.122Z,213.91
2023-04-16T10:23:05.193Z,218.49
2023-04-16T10:24:05.289Z,216.49
2023-04-16T10:25:05.272Z,214.51
2023-04-16T10:26:05.357Z,220.41
2023-04-16T10:27:05.385Z,230.11
2023-04-16T10:28:05.418Z,230.70
2023-04-16T10:29:05.448Z,233.93
2023-04-16T10:30:05.530Z,233.74
2023-04-16T10:31:05.634Z,240.86
2023-04-16T10:32:05.605Z,238.19
2023-04-16T10:33:05.727Z,234.96
2023-04-16T10:34:05.724Z,239.69
2023-04-16T10:35:05.744Z,234.23
2023-04-16T10:36:07.880Z,225.90
2023-04-16T10:37:05.857Z,230.27
2023-04-16T10:38:05.918Z,222.53
2023-04-16T10:39:05.989Z,224.84
2023-04-16T10:40:06.016Z,222.16
2023-04-16T10:41:06.061Z,227.98
2023-04-16T10:42:06.132Z,235.96
2023-04-16T10:43:06.189Z,233.29
2023-04-16T10:44:06.198Z,227.68
2023-04-16T10:45:06.226Z,226.84
2023-04-16T10:46:06.292Z,231.52
2023-04-16T10:47:06.358Z,235.84
2023-04-16T10:48:06.409Z,238.43
2023-04-16T10:49:06.439Z,233.10
2023-04-16T10:50:06.533Z,229.92
2023-04-16T10:51:06.573Z,229.22
2023-04-16T10:52:06.585Z,237.40
2023-04-16T10:53:06.625Z,241.65
2023-04-16T10:54:06.694Z,240.44
2023-04-16T10:55:06.715Z,234.85
2023-04-16T10:56:06.767Z,234.67
2023-04-16T10:57:06.799Z,242.58
2023-04-16T10:58:06.867Z,238.76
2023-04-16T10:59:06.867Z,230.67
2023-04-16T11:00:06.945Z,227.66
2023-04-16T11:01:06.998Z,239.47
2023-04-16T11:02:07.130Z,229.74
2023-04-16T11:03:07.252Z,228.05
2023-04-16T11:04:07.376Z,226.00
2023-04-16T11:05:07.170Z,230.50
2023-04-16T11:06:07.291Z,233.76
2023-04-16T11:07:07.396Z,239.36
2023-04-16T11:08:07.283Z,246.38
2023-04-16T11:09:07.337Z,245.63
2023-04-16T11:10:07.408Z,244.24
2023-04-16T11:11:07.414Z,243.15
2023-04-16T11:12:07.429Z,244.25
2023-04-16T11:13:07.516Z,239.12
2023-04-16T11:14:07.526Z,237.82
2023-04-16T11:15:07.585Z,237.46
2023-04-16T11:16:07.610Z,229.57
2023-04-16T11:17:07.675Z,216.88
2023-04-16T11:18:07.728Z,212.56
2023-04-16T11:19:07.721Z,210.24
2023-04-16T11:20:19.502Z,210.94
2023-04-16T11:21:08.817Z,211.14
2023-04-16T11:22:07.795Z,211.31
2023-04-16T11:23:07.746Z,213.87
2023-04-16T11:24:07.761Z,213.06
2023-04-16T11:25:07.769Z,214.36
2023-04-16T11:26:07.764Z,208.85
2023-04-16T11:27:07.752Z,216.85
2023-04-16T11:28:07.732Z,218.22
2023-04-16T11:29:07.864Z,218.03
2023-04-16T11:30:07.704Z,226.37
2023-04-16T11:31:07.822Z,217.22
2023-04-16T11:32:07.727Z,213.35
2023-04-16T11:33:07.707Z,214.62
2023-04-16T11:34:07.696Z,209.69
2023-04-16T11:35:07.776Z,216.98
2023-04-16T11:36:07.826Z,224.86
2023-04-16T11:37:07.843Z,219.67
2023-04-16T11:38:07.926Z,211.17
2023-04-16T11:39:08.008Z,214.02
2023-04-16T11:40:07.972Z,214.75
2023-04-16T11:41:07.996Z,212.86
2023-04-16T11:42:08.054Z,207.33
2023-04-16T11:43:08.072Z,206.65
2023-04-16T11:44:08.152Z,205.32
2023-04-16T11:45:08.186Z,200.66
2023-04-16T11:46:20.596Z,211.55
2023-04-16T11:47:09.213Z,211.66
2023-04-16T11:48:09.904Z,211.91
2023-04-16T11:49:08.340Z,210.60
2023-04-16T11:50:08.197Z,211.05
2023-04-16T11:51:08.175Z,211.35
2023-04-16T11:52:08.167Z,204.97
2023-04-16T11:53:08.164Z,208.19
2023-04-16T11:54:11.156Z,207.60
2023-04-16T11:55:08.146Z,207.97
2023-04-16T11:56:08.164Z,208.62
2023-04-16T11:57:08.162Z,211.72
2023-04-16T11:58:08.149Z,211.95
2023-04-16T11:59:08.363Z,217.73
2023-04-16T12:00:10.477Z,221.46
2023-04-16T12:01:08.232Z,229.88
2023-04-16T12:02:08.430Z,221.96
2023-04-16T12:03:08.698Z,215.62
2023-04-16T12:04:08.901Z,221.15
2023-04-16T12:05:08.491Z,216.65
2023-04-16T12:06:08.456Z,219.09
2023-04-16T12:07:08.538Z,215.12
2023-04-16T12:08:08.539Z,212.62
2023-04-16T12:09:08.770Z,208.34
2023-04-16T12:10:08.607Z,207.25
2023-04-16T12:11:08.686Z,206.95
2023-04-16T12:12:08.718Z,204.68
2023-04-16T12:13:08.764Z,203.15
2023-04-16T12:14:08.829Z,211.41
2023-04-16T12:15:08.851Z,210.82
2023-04-16T12:16:08.917Z,210.14
2023-04-16T12:17:08.977Z,211.21
2023-04-16T12:18:09.014Z,208.64
2023-04-16T12:19:09.158Z,206.25
2023-04-16T12:20:09.056Z,206.88
2023-04-16T12:21:09.076Z,207.34
2023-04-16T12:22:09.097Z,197.77
2023-04-16T12:23:09.171Z,200.27
2023-04-16T12:24:09.270Z,201.71
2023-04-16T12:25:09.257Z,195.75
2023-04-16T12:26:09.291Z,190.85
2023-04-16T12:27:09.313Z,189.11
2023-04-16T12:28:09.381Z,191.24
2023-04-16T12:29:09.578Z,197.58